createdAt,value
2023-10-09T00:00:36.645Z,20.4
2023-10-09T00:20:34.661Z,20.3
2023-10-09T00:40:35.338Z,20.3
2023-10-09T01:00:36.627Z,20.2
2023-10-09T01:20:35.645Z,20.2
2023-10-09T01:40:38.499Z,20.1
2023-10-09T02:00:38.596Z,20
2023-10-09T02:20:38.709Z,19.9
2023-10-09T02:40:35.665Z,19.9
2023-10-09T03:00:35.779Z,19.9
2023-10-09T03:20:36.004Z,19.8
2023-10-09T03:40:36.205Z,19.7
2023-10-09T04:00:36.317Z,19.7
2023-10-09T04:20:35.089Z,19.7
2023-10-09T04:40:35.201Z,19.6
2023-10-09T05:00:37.177Z,19.6
2023-10-09T05:20:34.811Z,19.6
2023-10-09T05:40:55.453Z,19.5
2023-10-09T06:00:36.089Z,19.5
2023-10-09T06:20:52.475Z,19.5
2023-10-09T06:40:51.827Z,19.5
2023-10-09T07:00:52.348Z,19.5
2023-10-09T07:20:58.430Z,19.6
2023-10-09T07:40:46.865Z,19.5
2023-10-09T08:00:51.880Z,19.6
2023-10-09T08:20:50.304Z,19.7
2023-10-09T08:40:52.142Z,19.7
2023-10-09T09:00:48.055Z,19.7
2023-10-09T09:20:52.933Z,19.8
2023-10-09T09:40:52.788Z,19.9
2023-10-09T10:00:58.846Z,19.9
2023-10-09T10:20:51.653Z,19.9
2023-10-09T10:40:52.793Z,19.9
2023-10-09T11:00:50.525Z,20
2023-10-09T11:20:49.647Z,20.1
2023-10-09T11:40:55.042Z,20.1
2023-10-09T12:00:51.411Z,20.2
2023-10-09T12:21:00.328Z,20.4
2023-10-09T12:40:50.356Z,20.4
2023-10-09T13:00:51.807Z,20.5
2023-10-09T13:21:09.422Z,20.6
2023-10-09T13:40:52.178Z,20.8
2023-10-09T14:00:59.153Z,21
2023-10-09T14:20:50.556Z,21
2023-10-09T14:40:55.775Z,21.3
2023-10-09T15:00:52.875Z,21.3
2023-10-09T15:20:55.064Z,21.6
2023-10-09T15:40:52.244Z,21.6
2023-10-09T16:00:50.463Z,21.7
2023-10-09T16:20:56.066Z,21.9
2023-10-09T16:40:53.020Z,21.8
2023-10-09T17:01:01.921Z,21.7
2023-10-09T17:20:37.176Z,21.7
2023-10-09T17:40:42.734Z,21.4
2023-10-09T18:00:35.491Z,21.4
2023-10-09T18:20:40.605Z,21.4
2023-10-09T18:40:35.734Z,21.3
2023-10-09T19:00:35.738Z,21.3
2023-10-09T19:20:36.005Z,21.3
2023-10-09T19:40:40.140Z,21.4
2023-10-09T20:00:35.548Z,21.4
2023-10-09T20:20:36.256Z,21.4
2023-10-09T20:40:36.444Z,21.4
2023-10-09T21:00:38.451Z,21.4
2023-10-09T21:20:37.199Z,21.2
2023-10-09T21:40:39.075Z,21.2
2023-10-09T22:00:53.319Z,21.2
2023-10-09T22:20:37.397Z,21.2
2023-10-09T22:40:36.337Z,21.1
2023-10-09T23:00:38.433Z,21.1
2023-10-09T23:20:39.656Z,21.1
2023-10-09T23:40:42.089Z,21
